createdAt,value
2023-03-21T00:01:07.492Z,100077.96
2023-03-21T00:03:36.432Z,100080.13
2023-03-21T00:06:09.267Z,100077.04
2023-03-21T00:08:39.865Z,100071.84
2023-03-21T00:11:10.714Z,100074.62
2023-03-21T00:13:42.089Z,100077.16
2023-03-21T00:16:21.391Z,100073.80
2023-03-21T00:18:58.050Z,100065.39
2023-03-21T00:22:03.607Z,100071.13
2023-03-21T00:24:22.604Z,100063.12
2023-03-21T00:26:51.555Z,100064.29
2023-03-21T00:29:20.584Z,100061.62
2023-03-21T00:31:49.712Z,100061.68
2023-03-21T00:34:26.719Z,100061.61
2023-03-21T00:37:06.974Z,100059.05
2023-03-21T00:39:36.154Z,100055.59
2023-03-21T00:42:05.593Z,100052.55
2023-03-21T00:44:36.566Z,100054.60
2023-03-21T00:47:07.755Z,100052.91
2023-03-21T00:49:38.202Z,100052.15
2023-03-21T00:52:20.136Z,100046.90
2023-03-21T00:54:53.553Z,100048.15
2023-03-21T00:57:37.553Z,100044.82
2023-03-21T01:00:10.214Z,100041.38
2023-03-21T01:03:02.559Z,100036.38
2023-03-21T01:05:53.662Z,100032.01
2023-03-21T01:08:28.211Z,100027.95
2023-03-21T01:11:04.194Z,100034.14
2023-03-21T01:13:36.291Z,100035.29
2023-03-21T01:16:08.170Z,100040.85
2023-03-21T01:18:39.507Z,100037.13
2023-03-21T01:21:11.301Z,100045.86
2023-03-21T01:23:42.153Z,100040.52
2023-03-21T01:26:12.711Z,100039.02
2023-03-21T01:28:43.357Z,100039.33
2023-03-21T01:31:24.331Z,100034.52
2023-03-21T01:33:53.307Z,100029.29
2023-03-21T01:36:25.537Z,100031.70
2023-03-21T01:38:55.217Z,100029.12
2023-03-21T01:41:42.048Z,100031.45
2023-03-21T01:44:17.012Z,100030.55
2023-03-21T01:46:57.385Z,100024.09
2023-03-21T01:49:38.939Z,100024.50
2023-03-21T01:52:20.986Z,100025.02
2023-03-21T01:54:57.565Z,100026.23
2023-03-21T01:57:40.396Z,100024.23
2023-03-21T02:00:15.591Z,100024.71
2023-03-21T02:02:52.281Z,100018.50
2023-03-21T02:05:28.423Z,100020.40
2023-03-21T02:07:57.690Z,100019.24
2023-03-21T02:10:27.344Z,100010.44
2023-03-21T02:13:07.723Z,100020.43
2023-03-21T02:15:38.596Z,100023.34
2023-03-21T02:18:15.557Z,100023.33
2023-03-21T02:21:10.536Z,100024.07
2023-03-21T02:23:58.696Z,100023.66
2023-03-21T02:26:57.962Z,100023.52
2023-03-21T02:29:55.424Z,100018.80
2023-03-21T02:32:38.096Z,100019.62
2023-03-21T02:35:25.321Z,100016.14
2023-03-21T02:38:00.761Z,100012.30
2023-03-21T02:40:36.773Z,100012.89
2023-03-21T02:43:22.598Z,100016.95
2023-03-21T02:45:57.336Z,100016.96
2023-03-21T02:48:44.834Z,100015.34
2023-03-21T02:51:23.264Z,100014.30
2023-03-21T02:54:23.772Z,100016.66
2023-03-21T02:56:50.117Z,100015.91
2023-03-21T02:59:21.471Z,100018.35
2023-03-21T03:01:52.721Z,100019.71
2023-03-21T03:04:23.868Z,100022.20
2023-03-21T03:07:08.598Z,100022.06
2023-03-21T03:09:49.242Z,100020.73
2023-03-21T03:12:28.459Z,100026.69
2023-03-21T03:15:06.168Z,100029.02
2023-03-21T03:17:45.772Z,100027.58
2023-03-21T03:20:24.737Z,100031.81
2023-03-21T03:23:00.733Z,100031.90
2023-03-21T03:25:43.074Z,100031.44
2023-03-21T03:28:15.445Z,100032.79
2023-03-21T03:31:00.917Z,100035.65
2023-03-21T03:33:38.628Z,100035.44
2023-03-21T03:36:28.370Z,100032.57
2023-03-21T03:39:00.855Z,100027.39
2023-03-21T03:41:33.160Z,100028.95
2023-03-21T03:44:15.283Z,100032.54
2023-03-21T03:46:51.886Z,100033.39
2023-03-21T03:49:25.604Z,100029.55
2023-03-21T03:51:59.706Z,100034.65
2023-03-21T03:54:33.785Z,100029.48
2023-03-21T03:57:03.098Z,100025.57
2023-03-21T03:59:33.924Z,100022.36
2023-03-21T04:02:03.208Z,100023.45
2023-03-21T04:04:32.103Z,100029.34
2023-03-21T04:07:03.150Z,100021.92
2023-03-21T04:09:43.612Z,100021.65
2023-03-21T04:12:12.984Z,100021.27
2023-03-21T04:14:47.196Z,100018.80
2023-03-21T04:17:16.978Z,100017.35
2023-03-21T04:19:46.488Z,100021.87
2023-03-21T04:22:16.780Z,100020.06
2023-03-21T04:24:45.742Z,100022.60
2023-03-21T04:27:14.662Z,100019.76
2023-03-21T04:29:53.150Z,100021.89
2023-03-21T04:32:35.855Z,100022.58
2023-03-21T04:35:21.095Z,100023.20
2023-03-21T04:38:02.983Z,100027.20
2023-03-21T04:40:32.006Z,100027.73
2023-03-21T04:43:01.415Z,100028.55
2023-03-21T04:45:30.567Z,100027.13
2023-03-21T04:47:59.559Z,100026.59
2023-03-21T04:50:28.665Z,100028.16
2023-03-21T04:52:57.562Z,100031.79
2023-03-21T04:55:29.114Z,100032.77
2023-03-21T04:57:58.178Z,100035.02
2023-03-21T05:00:27.227Z,100031.74
2023-03-21T05:02:57.377Z,100033.92
2023-03-21T05:05:26.909Z,100036.19
2023-03-21T05:07:55.917Z,100036.39
2023-03-21T05:10:25.026Z,100040.45
2023-03-21T05:12:54.024Z,100042.46
2023-03-21T05:15:23.183Z,100042.42
2023-03-21T05:17:52.353Z,100042.27
2023-03-21T05:20:21.511Z,100042.00
2023-03-21T05:22:51.544Z,100042.54
2023-03-21T05:25:20.871Z,100039.92
2023-03-21T05:27:53.723Z,100040.60
2023-03-21T05:30:23.015Z,100040.59
2023-03-21T05:32:52.126Z,100044.50
2023-03-21T05:35:21.296Z,100045.96
2023-03-21T05:37:50.246Z,100048.81
2023-03-21T05:40:19.438Z,100051.73
2023-03-21T05:42:48.629Z,100052.27
2023-03-21T05:45:17.757Z,100054.73
2023-03-21T05:47:46.804Z,100057.77
2023-03-21T05:50:15.704Z,100061.30
2023-03-21T05:52:44.637Z,100063.73
2023-03-21T05:55:13.461Z,100066.80
2023-03-21T05:57:42.498Z,100068.45
2023-03-21T06:00:13.918Z,100070.05
2023-03-21T06:02:43.049Z,100067.86
2023-03-21T06:05:12.548Z,100066.70
2023-03-21T06:07:41.433Z,100067.09
2023-03-21T06:10:12.360Z,100068.77
2023-03-21T06:12:42.729Z,100067.17
2023-03-21T06:15:13.456Z,100071.47
2023-03-21T06:17:42.477Z,100070.97
2023-03-21T06:20:13.400Z,100075.52
2023-03-21T06:22:42.558Z,100078.58
2023-03-21T06:25:11.767Z,100079.17
2023-03-21T06:27:40.955Z,100081.79
2023-03-21T06:30:12.534Z,100085.60
2023-03-21T06:32:41.606Z,100090.34
2023-03-21T06:35:11.181Z,100087.31
2023-03-21T06:37:40.364Z,100090.76
2023-03-21T06:40:11.657Z,100092.66
2023-03-21T06:42:40.833Z,100090.73
2023-03-21T06:45:11.434Z,100092.63
2023-03-21T06:47:40.567Z,100091.92
2023-03-21T06:50:11.761Z,100096.30
2023-03-21T06:52:40.656Z,100097.86
2023-03-21T06:55:10.812Z,100102.64
2023-03-21T06:57:39.810Z,100101.02
2023-03-21T07:00:12.835Z,100101.91
2023-03-21T07:02:41.748Z,100104.33
2023-03-21T07:05:11.467Z,100105.64
2023-03-21T07:07:40.793Z,100109.90
2023-03-21T07:10:12.028Z,100109.27
2023-03-21T07:12:40.927Z,100108.52
2023-03-21T07:15:12.023Z,100114.44
2023-03-21T07:17:41.066Z,100114.58
2023-03-21T07:20:13.089Z,100110.54
2023-03-21T07:22:42.143Z,100113.71
2023-03-21T07:25:12.141Z,100113.31
2023-03-21T07:27:42.094Z,100112.55
2023-03-21T07:30:13.586Z,100113.41
2023-03-21T07:32:42.938Z,100112.42
2023-03-21T07:35:15.730Z,100114.63
2023-03-21T07:37:45.381Z,100114.49
2023-03-21T07:40:15.984Z,100114.83
2023-03-21T07:42:45.011Z,100115.36
2023-03-21T07:45:15.543Z,100115.61
2023-03-21T07:47:44.878Z,100117.27
2023-03-21T07:50:14.017Z,100115.88
2023-03-21T07:52:43.143Z,100115.04
2023-03-21T07:55:12.750Z,100113.74
2023-03-21T07:57:41.780Z,100118.65
2023-03-21T08:00:13.561Z,100117.30
2023-03-21T08:02:42.627Z,100122.94
2023-03-21T08:05:11.976Z,100126.66
2023-03-21T08:07:40.954Z,100127.08
2023-03-21T08:10:12.472Z,100128.80
2023-03-21T08:12:41.635Z,100130.01
2023-03-21T08:15:12.815Z,100134.03
2023-03-21T08:17:45.206Z,100131.88
2023-03-21T08:20:16.666Z,100134.60
2023-03-21T08:22:45.705Z,100135.98
2023-03-21T08:25:17.512Z,100140.83
2023-03-21T08:27:48.026Z,100137.58
2023-03-21T08:30:19.779Z,100134.49
2023-03-21T08:32:49.065Z,100135.96
2023-03-21T08:35:20.036Z,100138.60
2023-03-21T08:37:49.235Z,100142.95
2023-03-21T08:40:20.316Z,100149.05
2023-03-21T08:42:49.324Z,100150.79
2023-03-21T08:45:19.151Z,100154.69
2023-03-21T08:47:48.288Z,100153.58
2023-03-21T08:50:19.751Z,100156.94
2023-03-21T08:52:49.562Z,100159.98
2023-03-21T08:55:19.781Z,100161.37
2023-03-21T08:57:48.988Z,100161.91
2023-03-21T09:00:20.263Z,100161.86
2023-03-21T09:02:52.274Z,100163.49
2023-03-21T09:05:22.580Z,100164.76
2023-03-21T09:07:52.531Z,100166.02
2023-03-21T09:10:23.559Z,100168.48
2023-03-21T09:12:54.528Z,100165.33
2023-03-21T09:15:24.693Z,100169.68
2023-03-21T09:17:55.652Z,100171.64
2023-03-21T09:20:30.156Z,100176.83
2023-03-21T09:22:59.601Z,100178.49
2023-03-21T09:25:30.652Z,100178.46
2023-03-21T09:27:59.947Z,100183.23
2023-03-21T09:30:29.852Z,100184.70
2023-03-21T09:33:00.450Z,100185.35
2023-03-21T09:35:30.640Z,100184.66
2023-03-21T09:38:00.216Z,100188.30
2023-03-21T09:40:47.006Z,100192.05
2023-03-21T09:43:32.816Z,100190.29
2023-03-21T09:46:09.468Z,100193.64
2023-03-21T09:48:54.381Z,100189.90
2023-03-21T09:51:29.877Z,100191.48
2023-03-21T09:54:04.782Z,100191.19
2023-03-21T09:56:34.751Z,100192.50
2023-03-21T09:59:06.835Z,100196.60
2023-03-21T10:01:41.809Z,100194.29
2023-03-21T10:04:16.469Z,100195.67
2023-03-21T10:06:46.259Z,100201.19
2023-03-21T10:09:21.250Z,100198.91
2023-03-21T10:11:54.507Z,100201.94
2023-03-21T10:14:29.887Z,100197.58
2023-03-21T10:17:01.485Z,100195.46
2023-03-21T10:19:30.756Z,100199.54
2023-03-21T10:22:02.678Z,100201.04
2023-03-21T10:24:35.314Z,100202.18
2023-03-21T10:27:05.505Z,100205.45
2023-03-21T10:29:42.124Z,100206.09
2023-03-21T10:32:13.759Z,100204.05
2023-03-21T10:34:45.793Z,100205.77
2023-03-21T10:37:16.974Z,100205.38
2023-03-21T10:39:49.326Z,100210.73
2023-03-21T10:42:23.493Z,100207.43
2023-03-21T10:44:57.002Z,100209.38
2023-03-21T10:47:28.183Z,100210.12
2023-03-21T10:50:10.093Z,100208.07
2023-03-21T10:52:45.596Z,100209.89
2023-03-21T10:55:23.205Z,100206.95
2023-03-21T10:57:59.785Z,100207.60
2023-03-21T11:00:36.266Z,100206.55
2023-03-21T11:03:07.041Z,100205.80
2023-03-21T11:05:39.028Z,100208.71
2023-03-21T11:08:13.212Z,100206.10
2023-03-21T11:10:54.490Z,100211.92
2023-03-21T11:13:33.094Z,100207.94
2023-03-21T11:16:08.516Z,100214.92
2023-03-21T11:18:42.406Z,100213.60
2023-03-21T11:21:14.474Z,100214.65
2023-03-21T11:23:47.585Z,100212.73
2023-03-21T11:26:23.872Z,100213.20
2023-03-21T11:28:54.194Z,100208.94
2023-03-21T11:31:38.288Z,100209.90
2023-03-21T11:34:09.838Z,100208.94
2023-03-21T11:36:39.600Z,100210.58
2023-03-21T11:39:33.216Z,100208.77
2023-03-21T11:42:02.637Z,100206.39
2023-03-21T11:44:35.282Z,100200.98
2023-03-21T11:47:04.394Z,100200.13
2023-03-21T11:49:33.416Z,100197.82
2023-03-21T11:52:21.337Z,100199.27
2023-03-21T11:55:23.584Z,100201.45
2023-03-21T11:58:13.952Z,100197.01
2023-03-21T12:00:54.363Z,100199.02
2023-03-21T12:03:47.420Z,100194.44
2023-03-21T12:06:25.557Z,100196.30
2023-03-21T12:09:06.233Z,100197.22
2023-03-21T12:11:49.070Z,100203.26
2023-03-21T12:14:28.065Z,100193.48
2023-03-21T12:17:10.768Z,100194.89
2023-03-21T12:20:01.616Z,100194.61
2023-03-21T12:22:39.962Z,100190.41
2023-03-21T12:25:14.057Z,100178.61
2023-03-21T12:27:52.166Z,100182.89
2023-03-21T12:30:39.539Z,100178.00
2023-03-21T12:33:25.134Z,100178.23
2023-03-21T12:36:10.741Z,100176.95
2023-03-21T12:38:44.503Z,100172.45
2023-03-21T12:41:27.112Z,100172.09
2023-03-21T12:44:03.188Z,100174.42
2023-03-21T12:46:36.780Z,100174.95
2023-03-21T12:49:14.331Z,100170.36
2023-03-21T12:51:47.862Z,100168.80
2023-03-21T12:54:25.671Z,100170.85
2023-03-21T12:56:59.571Z,100173.41
2023-03-21T12:59:36.621Z,100175.03
2023-03-21T13:02:19.041Z,100172.55
2023-03-21T13:04:59.497Z,100171.27
2023-03-21T13:07:33.264Z,100172.95
2023-03-21T13:10:05.182Z,100171.66
2023-03-21T13:12:48.761Z,100171.85
2023-03-21T13:15:44.482Z,100174.17
2023-03-21T13:18:21.194Z,100168.72
2023-03-21T13:20:53.833Z,100171.33
2023-03-21T13:23:25.501Z,100167.39
2023-03-21T13:25:57.920Z,100169.04
2023-03-21T13:28:31.665Z,100166.09
2023-03-21T13:31:21.827Z,100166.91
2023-03-21T13:33:53.537Z,100158.20
2023-03-21T13:36:26.928Z,100155.23
2023-03-21T13:39:01.818Z,100154.98
2023-03-21T13:41:35.466Z,100153.73
2023-03-21T13:44:23.463Z,100150.87
2023-03-21T13:47:02.497Z,100151.35
2023-03-21T13:49:34.872Z,100152.34
2023-03-21T13:52:27.329Z,100148.50
2023-03-21T13:54:57.371Z,100144.73
2023-03-21T13:57:39.507Z,100146.13
2023-03-21T14:00:29.429Z,100147.98
2023-03-21T14:03:05.982Z,100147.48
2023-03-21T14:05:36.825Z,100151.31
2023-03-21T14:08:24.752Z,100152.77
2023-03-21T14:11:06.727Z,100150.92
2023-03-21T14:13:48.343Z,100151.67
2023-03-21T14:16:21.966Z,100150.96
2023-03-21T14:18:56.019Z,100151.70
2023-03-21T14:21:29.073Z,100148.27
2023-03-21T14:24:02.742Z,100149.90
2023-03-21T14:26:34.657Z,100150.73
2023-03-21T14:29:09.583Z,100151.12
2023-03-21T14:31:47.430Z,100149.97
2023-03-21T14:34:17.990Z,100149.08
2023-03-21T14:36:56.893Z,100148.25
2023-03-21T14:39:30.203Z,100145.38
2023-03-21T14:42:05.560Z,100143.90
2023-03-21T14:44:53.990Z,100140.15
2023-03-21T14:47:27.066Z,100141.74
2023-03-21T14:49:56.714Z,100145.31
2023-03-21T14:52:30.751Z,100139.06
2023-03-21T14:55:01.936Z,100137.02
2023-03-21T14:57:33.459Z,100136.08
2023-03-21T15:00:11.930Z,100135.52
2023-03-21T15:02:43.507Z,100136.39
2023-03-21T15:05:19.749Z,100136.06
2023-03-21T15:07:57.188Z,100133.69
2023-03-21T15:10:30.221Z,100132.23
2023-03-21T15:13:01.830Z,100128.66
2023-03-21T15:15:32.340Z,100128.98
2023-03-21T15:18:07.881Z,100128.36
2023-03-21T15:20:39.916Z,100129.86
2023-03-21T15:23:15.690Z,100128.77
2023-03-21T15:25:45.691Z,100122.92
2023-03-21T15:28:17.006Z,100123.95
2023-03-21T15:30:51.431Z,100125.96
2023-03-21T15:33:21.327Z,100127.16
2023-03-21T15:35:55.103Z,100125.33
2023-03-21T15:38:30.225Z,100123.45
2023-03-21T15:41:25.951Z,100123.16
2023-03-21T15:44:05.466Z,100123.32
2023-03-21T15:46:42.391Z,100123.03
2023-03-21T15:49:24.885Z,100126.48
2023-03-21T15:51:57.251Z,100119.77
2023-03-21T15:54:29.756Z,100123.10
2023-03-21T15:57:04.138Z,100118.79
2023-03-21T15:59:36.498Z,100118.23
2023-03-21T16:02:11.321Z,100113.86
2023-03-21T16:04:58.397Z,100106.86
2023-03-21T16:07:27.981Z,100108.17
2023-03-21T16:10:01.723Z,100107.64
2023-03-21T16:12:30.772Z,100111.54
2023-03-21T16:14:59.646Z,100109.27
2023-03-21T16:17:36.308Z,100109.83
2023-03-21T16:20:14.069Z,100112.01
2023-03-21T16:22:43.108Z,100111.41
2023-03-21T16:25:12.338Z,100113.23
2023-03-21T16:27:42.141Z,100111.27
2023-03-21T16:30:15.188Z,100113.44
2023-03-21T16:32:44.028Z,100112.96
2023-03-21T16:35:13.583Z,100117.48
2023-03-21T16:37:43.062Z,100120.09
2023-03-21T16:40:23.270Z,100120.74
2023-03-21T16:42:52.300Z,100121.52
2023-03-21T16:45:21.380Z,100129.44
2023-03-21T16:47:51.375Z,100129.21
2023-03-21T16:50:31.224Z,100132.51
2023-03-21T16:53:00.773Z,100133.23
2023-03-21T16:55:32.650Z,100138.09
2023-03-21T16:58:02.551Z,100138.17
2023-03-21T17:00:32.543Z,100140.09
2023-03-21T17:03:03.349Z,100137.20
2023-03-21T17:05:32.435Z,100140.77
2023-03-21T17:08:02.597Z,100143.89
2023-03-21T17:10:34.163Z,100145.38
2023-03-21T17:13:03.537Z,100149.84
2023-03-21T17:15:33.003Z,100150.48
2023-03-21T17:18:02.287Z,100148.52
2023-03-21T17:20:33.909Z,100153.13
2023-03-21T17:23:03.184Z,100158.48
2023-03-21T17:25:32.474Z,100155.54
2023-03-21T17:28:02.205Z,100158.33
2023-03-21T17:30:37.444Z,100157.80
2023-03-21T17:33:07.728Z,100161.14
2023-03-21T17:35:38.505Z,100160.31
2023-03-21T17:38:12.947Z,100164.08
2023-03-21T17:40:43.068Z,100165.15
2023-03-21T17:43:17.840Z,100166.39
2023-03-21T17:45:49.610Z,100168.39
2023-03-21T17:48:21.704Z,100173.00
2023-03-21T17:50:50.941Z,100173.80
2023-03-21T17:53:20.409Z,100176.41
2023-03-21T17:55:51.894Z,100179.73
2023-03-21T17:58:22.142Z,100186.09
2023-03-21T18:00:51.003Z,100188.21
2023-03-21T18:03:22.967Z,100188.20
2023-03-21T18:05:55.493Z,100186.21
2023-03-21T18:08:24.545Z,100190.75
2023-03-21T18:10:54.760Z,100194.84
2023-03-21T18:13:24.009Z,100191.98
2023-03-21T18:15:53.729Z,100197.26
2023-03-21T18:18:22.694Z,100202.58
2023-03-21T18:20:54.467Z,100200.23
2023-03-21T18:23:24.173Z,100205.09
2023-03-21T18:25:57.991Z,100206.95
2023-03-21T18:28:28.025Z,100210.02
2023-03-21T18:31:12.683Z,100207.59
2023-03-21T18:33:48.097Z,100209.26
2023-03-21T18:36:25.357Z,100209.88
2023-03-21T18:39:05.184Z,100210.81
2023-03-21T18:41:36.488Z,100205.99
2023-03-21T18:44:23.626Z,100202.71
2023-03-21T18:46:55.425Z,100204.43
2023-03-21T18:50:05.857Z,100198.61
2023-03-21T18:52:18.984Z,100202.41
2023-03-21T18:54:49.470Z,100201.41
2023-03-21T18:57:38.698Z,100202.77
2023-03-21T19:00:13.891Z,100204.02
2023-03-21T19:03:13.066Z,100206.54
2023-03-21T19:05:50.981Z,100203.46
2023-03-21T19:08:23.797Z,100213.75
2023-03-21T19:10:59.574Z,100209.59
2023-03-21T19:13:33.668Z,100208.48
2023-03-21T19:16:05.669Z,100211.06
2023-03-21T19:18:53.430Z,100211.11
2023-03-21T19:21:27.724Z,100211.48
2023-03-21T19:24:29.316Z,100211.48
2023-03-21T19:26:58.658Z,100214.02
2023-03-21T19:29:29.752Z,100214.54
2023-03-21T19:32:04.457Z,100208.81
2023-03-21T19:34:35.198Z,100214.91
2023-03-21T19:37:05.958Z,100217.31
2023-03-21T19:39:39.190Z,100215.23
2023-03-21T19:42:22.712Z,100213.24
2023-03-21T19:44:54.358Z,100213.93
2023-03-21T19:47:32.828Z,100209.83
2023-03-21T19:50:43.960Z,100212.23
2023-03-21T19:52:59.058Z,100210.81
2023-03-21T19:55:35.402Z,100215.94
2023-03-21T19:58:09.375Z,100216.45
2023-03-21T20:00:41.146Z,100216.27
2023-03-21T20:03:22.443Z,100216.84
2023-03-21T20:06:03.318Z,100218.69
2023-03-21T20:08:58.031Z,100220.56
2023-03-21T20:11:28.875Z,100223.27
2023-03-21T20:14:03.485Z,100221.08
2023-03-21T20:16:34.733Z,100215.81
2023-03-21T20:19:09.232Z,100215.14
2023-03-21T20:21:48.528Z,100215.13
2023-03-21T20:24:27.282Z,100216.27
2023-03-21T20:27:00.331Z,100214.36
2023-03-21T20:32:21.657Z,100212.63
2023-03-21T20:35:02.645Z,100209.64
2023-03-21T20:37:45.992Z,100210.86
2023-03-21T20:40:18.375Z,100212.55
2023-03-21T20:42:50.691Z,100215.17
2023-03-21T20:45:22.040Z,100214.38
2023-03-21T20:47:58.103Z,100219.16
2023-03-21T20:50:33.083Z,100213.27
2023-03-21T20:53:07.279Z,100211.77
2023-03-21T20:55:39.932Z,100211.36
2023-03-21T20:58:36.738Z,100209.86
2023-03-21T21:01:04.874Z,100208.80
2023-03-21T21:03:39.261Z,100205.44
2023-03-21T21:06:15.126Z,100208.66
2023-03-21T21:08:47.703Z,100207.24
2023-03-21T21:12:04.742Z,100209.02
2023-03-21T21:14:08.605Z,100204.65
2023-03-21T21:16:41.329Z,100209.73
2023-03-21T21:19:10.357Z,100209.93
2023-03-21T21:21:39.478Z,100208.27
2023-03-21T21:24:10.983Z,100206.59
2023-03-21T21:26:45.901Z,100198.98
2023-03-21T21:29:16.776Z,100196.65
2023-03-21T21:31:48.483Z,100192.27
2023-03-21T21:34:18.427Z,100194.22
2023-03-21T21:36:47.651Z,100192.17
2023-03-21T21:39:16.602Z,100197.54
2023-03-21T21:41:45.571Z,100195.39
2023-03-21T21:44:14.804Z,100201.02
2023-03-21T21:46:43.631Z,100198.95
2023-03-21T21:49:12.415Z,100201.02
2023-03-21T21:51:41.466Z,100203.79
2023-03-21T21:54:10.832Z,100197.85
2023-03-21T21:56:39.602Z,100198.29
2023-03-21T21:59:08.615Z,100197.27
2023-03-21T22:01:38.227Z,100201.50
2023-03-21T22:04:07.903Z,100199.86
2023-03-21T22:06:36.738Z,100205.63
2023-03-21T22:09:06.570Z,100209.14
2023-03-21T22:11:35.485Z,100203.03
2023-03-21T22:14:04.474Z,100209.64
2023-03-21T22:16:33.547Z,100204.83
2023-03-21T22:19:02.845Z,100204.55
2023-03-21T22:21:31.680Z,100203.04
2023-03-21T22:24:01.092Z,100202.12
2023-03-21T22:26:30.093Z,100199.27
2023-03-21T22:28:59.561Z,100196.08
2023-03-21T22:31:28.600Z,100194.98
2023-03-21T22:33:57.536Z,100197.61
2023-03-21T22:36:26.778Z,100197.89
2023-03-21T22:38:56.042Z,100203.60
2023-03-21T22:41:24.965Z,100197.45
2023-03-21T22:43:53.963Z,100196.48
2023-03-21T22:46:23.163Z,100194.92
2023-03-21T22:48:52.028Z,100200.77
2023-03-21T22:51:21.473Z,100200.79
2023-03-21T22:53:50.344Z,100203.24
2023-03-21T22:56:19.191Z,100203.30
2023-03-21T22:58:48.147Z,100200.70
2023-03-21T23:01:17.034Z,100199.33
2023-03-21T23:03:46.022Z,100201.13
2023-03-21T23:06:14.974Z,100197.11
2023-03-21T23:08:43.826Z,100199.50
2023-03-21T23:11:12.791Z,100197.25
2023-03-21T23:13:41.719Z,100194.33
2023-03-21T23:16:11.319Z,100191.67
2023-03-21T23:18:40.364Z,100188.20
2023-03-21T23:21:12.774Z,100186.40
2023-03-21T23:23:43.448Z,100188.41
2023-03-21T23:26:12.818Z,100185.39
2023-03-21T23:28:42.103Z,100183.73
2023-03-21T23:31:13.254Z,100186.05
2023-03-21T23:33:42.435Z,100185.80
2023-03-21T23:36:14.219Z,100186.22
2023-03-21T23:38:43.978Z,100183.26
2023-03-21T23:41:14.775Z,100182.71
2023-03-21T23:43:44.103Z,100179.48
2023-03-21T23:46:13.871Z,100174.95
2023-03-21T23:48:43.461Z,100172.83
2023-03-21T23:51:14.468Z,100173.66
2023-03-21T23:53:44.532Z,100169.22
2023-03-21T23:56:15.692Z,100166.58
2023-03-21T23:58:44.615Z,100164.69
